sensor_id;sensor_type;location;lat;lon;timestamp;temperature;humidity
42187;DHT22;27858;51.414;0.018;2022-10-26T02:53:22;15.50;99.90
42187;DHT22;27858;51.414;0.018;2022-10-26T02:55:50;15.60;99.90
42187;DHT22;27858;51.414;0.018;2022-10-26T02:58:21;15.60;99.90
42187;DHT22;27858;51.414;0.018;2022-10-26T03:00:50;15.50;99.90
42187;DHT22;27858;51.414;0.018;2022-10-26T03:03:21;15.60;99.90
42187;DHT22;27858;51.414;0.018;2022-10-26T03:05:48;15.50;99.90
42187;DHT22;27858;51.414;0.018;2022-10-26T03:08:15;15.50;99.90
42187;DHT22;27858;51.414;0.018;2022-10-26T03:10:44;15.50;99.90
42187;DHT22;27858;51.414;0.018;2022-10-26T03:13:12;15.50;99.90
42187;DHT22;27858;51.414;0.018;2022-10-26T03:15:39;15.50;99.90
42187;DHT22;27858;51.414;0.018;2022-10-26T03:18:06;15.60;99.90
42187;DHT22;27858;51.414;0.018;2022-10-26T03:20:33;15.50;99.90
42187;DHT22;27858;51.414;0.018;2022-10-26T03:23:00;15.50;99.90
42187;DHT22;27858;51.414;0.018;2022-10-26T03:25:28;15.60;99.90
42187;DHT22;27858;51.414;0.018;2022-10-26T03:27:56;15.50;99.90
42187;DHT22;27858;51.414;0.018;2022-10-26T03:30:28;15.50;99.90
42187;DHT22;27858;51.414;0.018;2022-10-26T03:32:55;15.40;99.90
42187;DHT22;27858;51.414;0.018;2022-10-26T03:35:23;15.50;99.90
42187;DHT22;27858;51.414;0.018;2022-10-26T03:37:51;15.40;99.90
42187;DHT22;27858;51.414;0.018;2022-10-26T03:40:18;15.40;99.90
42187;DHT22;27858;51.414;0.018;2022-10-26T03:42:45;15.50;99.90
42187;DHT22;27858;51.414;0.018;2022-10-26T03:45:12;15.40;99.90
42187;DHT22;27858;51.414;0.018;2022-10-26T03:47:54;15.50;99.90
42187;DHT22;27858;51.414;0.018;2022-10-26T03:50:21;15.40;99.90
42187;DHT22;27858;51.414;0.018;2022-10-26T03:52:48;15.30;99.90
42187;DHT22;27858;51.414;0.018;2022-10-26T03:55:16;15.50;99.90
42187;DHT22;27858;51.414;0.018;2022-10-26T03:57:44;15.40;99.90
42187;DHT22;27858;51.414;0.018;2022-10-26T04:00:13;15.60;99.90
42187;DHT22;27858;51.414;0.018;2022-10-26T04:02:44;15.50;99.90
42187;DHT22;27858;51.414;0.018;2022-10-26T04:05:14;15.50;99.90
42187;DHT22;27858;51.414;0.018;2022-10-26T04:07:42;15.50;99.90
42187;DHT22;27858;51.414;0.018;2022-10-26T04:10:10;15.60;99.90
42187;DHT22;27858;51.414;0.018;2022-10-26T04:12:53;15.70;99.90
42187;DHT22;27858;51.414;0.018;2022-10-26T04:15:21;15.70;99.90
42187;DHT22;27858;51.414;0.018;2022-10-26T04:17:58;15.80;99.90
42187;DHT22;27858;51.414;0.018;2022-10-26T04:20:26;15.80;99.90
42187;DHT22;27858;51.414;0.018;2022-10-26T04:22:58;15.90;99.90
42187;DHT22;27858;51.414;0.018;2022-10-26T04:25:25;16.00;99.90
42187;DHT22;27858;51.414;0.018;2022-10-26T04:28:04;16.00;99.90
42187;DHT22;27858;51.414;0.018;2022-10-26T04:30:33;16.00;99.90
42187;DHT22;27858;51.414;0.018;2022-10-26T04:33:00;16.10;99.90
42187;DHT22;27858;51.414;0.018;2022-10-26T04:35:27;16.10;99.90
42187;DHT22;27858;51.414;0.018;2022-10-26T04:38:02;16.20;99.90
42187;DHT22;27858;51.414;0.018;2022-10-26T04:40:30;16.30;99.90
42187;DHT22;27858;51.414;0.018;2022-10-26T04:42:57;16.30;99.90
42187;DHT22;27858;51.414;0.018;2022-10-26T04:45:24;16.30;99.90
42187;DHT22;27858;51.414;0.018;2022-10-26T04:48:04;16.30;99.90
42187;DHT22;27858;51.414;0.018;2022-10-26T04:50:32;16.40;99.90
42187;DHT22;27858;51.414;0.018;2022-10-26T04:52:59;16.30;99.90
42187;DHT22;27858;51.414;0.018;2022-10-26T04:55:26;16.40;99.90
42187;DHT22;27858;51.414;0.018;2022-10-26T04:57:53;16.40;99.90
42187;DHT22;27858;51.414;0.018;2022-10-26T05:00:25;16.30;99.90
42187;DHT22;27858;51.414;0.018;2022-10-26T05:03:02;16.30;99.90
42187;DHT22;27858;51.414;0.018;2022-10-26T05:05:31;16.40;99.90
42187;DHT22;27858;51.414;0.018;2022-10-26T05:07:58;16.40;99.90
42187;DHT22;27858;51.414;0.018;2022-10-26T05:10:25;16.40;99.90
42187;DHT22;27858;51.414;0.018;2022-10-26T05:12:57;16.20;99.90
42187;DHT22;27858;51.414;0.018;2022-10-26T05:15:24;16.20;99.90
42187;DHT22;27858;51.414;0.018;2022-10-26T05:18:00;16.10;99.90
42187;DHT22;27858;51.414;0.018;2022-10-26T05:20:29;16.10;99.90
42187;DHT22;27858;51.414;0.018;2022-10-26T05:22:58;16.10;99.90
42187;DHT22;27858;51.414;0.018;2022-10-26T05:25:28;16.00;99.90
42187;DHT22;27858;51.414;0.018;2022-10-26T05:27:59;15.90;99.90
42187;DHT22;27858;51.414;0.018;2022-10-26T05:30:27;15.90;99.90
42187;DHT22;27858;51.414;0.018;2022-10-26T05:32:56;15.90;99.90
42187;DHT22;27858;51.414;0.018;2022-10-26T05:35:23;15.90;99.90
42187;DHT22;27858;51.414;0.018;2022-10-26T05:37:52;16.00;99.90
42187;DHT22;27858;51.414;0.018;2022-10-26T05:40:19;15.90;99.90
42187;DHT22;27858;51.414;0.018;2022-10-26T05:42:46;15.90;99.90
42187;DHT22;27858;51.414;0.018;2022-10-26T05:45:13;15.90;99.90
42187;DHT22;27858;51.414;0.018;2022-10-26T05:47:41;15.90;99.90
42187;DHT22;27858;51.414;0.018;2022-10-26T05:50:10;15.80;99.90
42187;DHT22;27858;51.414;0.018;2022-10-26T05:52:41;15.80;99.90
42187;DHT22;27858;51.414;0.018;2022-10-26T05:55:10;15.80;99.90
42187;DHT22;27858;51.414;0.018;2022-10-26T05:57:38;15.80;99.90
42187;DHT22;27858;51.414;0.018;2022-10-26T06:00:14;15.80;99.90
42187;DHT22;27858;51.414;0.018;2022-10-26T06:05:40;15.90;99.90
42187;DHT22;27858;51.414;0.018;2022-10-26T06:08:11;15.90;99.90
42187;DHT22;27858;51.414;0.018;2022-10-26T06:10:38;15.90;99.90
42187;DHT22;27858;51.414;0.018;2022-10-26T06:13:05;16.00;99.90
42187;DHT22;27858;51.414;0.018;2022-10-26T06:31:16;15.80;99.90
42187;DHT22;27858;51.414;0.018;2022-10-26T06:33:43;15.90;99.90
42187;DHT22;27858;51.414;0.018;2022-10-26T06:36:24;15.90;99.90
42187;DHT22;27858;51.414;0.018;2022-10-26T06:39:04;15.90;99.90
42187;DHT22;27858;51.414;0.018;2022-10-26T06:41:34;15.80;99.90
42187;DHT22;27858;51.414;0.018;2022-10-26T06:44:01;15.80;99.90
42187;DHT22;27858;51.414;0.018;2022-10-26T06:46:42;15.80;99.90
42187;DHT22;27858;51.414;0.018;2022-10-26T06:57:15;15.80;99.90
42187;DHT22;27858;51.414;0.018;2022-10-26T07:00:02;15.80;99.90
42187;DHT22;27858;51.414;0.018;2022-10-26T07:02:29;15.90;99.90
42187;DHT22;27858;51.414;0.018;2022-10-26T07:04:56;15.80;99.90
42187;DHT22;27858;51.414;0.018;2022-10-26T07:07:28;16.00;99.90
42187;DHT22;27858;51.414;0.018;2022-10-26T07:09:55;16.10;99.90
42187;DHT22;27858;51.414;0.018;2022-10-26T07:12:22;16.10;99.90
42187;DHT22;27858;51.414;0.018;2022-10-26T07:14:49;16.00;99.90
42187;DHT22;27858;51.414;0.018;2022-10-26T07:17:16;16.00;99.90
42187;DHT22;27858;51.414;0.018;2022-10-26T07:19:43;16.00;99.90
42187;DHT22;27858;51.414;0.018;2022-10-26T07:22:11;16.00;99.90
42187;DHT22;27858;51.414;0.018;2022-10-26T07:24:38;16.00;99.90
42187;DHT22;27858;51.414;0.018;2022-10-26T07:27:05;15.90;99.90
42187;DHT22;27858;51.414;0.018;2022-10-26T07:29:32;16.10;99.90
42187;DHT22;27858;51.414;0.018;2022-10-26T07:32:00;16.00;99.90
42187;DHT22;27858;51.414;0.018;2022-10-26T07:34:27;16.00;99.90
42187;DHT22;27858;51.414;0.018;2022-10-26T07:36:54;16.00;99.90
42187;DHT22;27858;51.414;0.018;2022-10-26T07:39:21;16.00;99.90
42187;DHT22;27858;51.414;0.018;2022-10-26T07:41:48;16.10;99.90
42187;DHT22;27858;51.414;0.018;2022-10-26T07:44:15;16.10;99.90
42187;DHT22;27858;51.414;0.018;2022-10-26T07:46:41;16.00;99.90
42187;DHT22;27858;51.414;0.018;2022-10-26T07:49:08;16.00;99.90
42187;DHT22;27858;51.414;0.018;2022-10-26T07:51:35;16.00;99.90
42187;DHT22;27858;51.414;0.018;2022-10-26T07:54:02;16.10;99.90
42187;DHT22;27858;51.414;0.018;2022-10-26T07:56:29;16.10;99.90
42187;DHT22;27858;51.414;0.018;2022-10-26T07:58:56;16.10;99.90
42187;DHT22;27858;51.414;0.018;2022-10-26T08:01:23;16.20;99.90
42187;DHT22;27858;51.414;0.018;2022-10-26T08:03:51;16.30;99.90
42187;DHT22;27858;51.414;0.018;2022-10-26T08:06:20;16.30;99.90
42187;DHT22;27858;51.414;0.018;2022-10-26T08:08:47;16.40;99.90
42187;DHT22;27858;51.414;0.018;2022-10-26T08:11:15;16.40;99.90
42187;DHT22;27858;51.414;0.018;2022-10-26T08:13:42;16.60;99.90
42187;DHT22;27858;51.414;0.018;2022-10-26T08:16:09;16.50;99.90
42187;DHT22;27858;51.414;0.018;2022-10-26T08:18:36;16.50;99.90
42187;DHT22;27858;51.414;0.018;2022-10-26T08:21:09;16.70;99.90
42187;DHT22;27858;51.414;0.018;2022-10-26T08:23:37;16.70;99.90
42187;DHT22;27858;51.414;0.018;2022-10-26T08:26:04;16.70;99.90
42187;DHT22;27858;51.414;0.018;2022-10-26T08:28:32;16.70;99.90
42187;DHT22;27858;51.414;0.018;2022-10-26T08:30:58;16.60;99.90
42187;DHT22;27858;51.414;0.018;2022-10-26T08:33:25;16.70;99.90
42187;DHT22;27858;51.414;0.018;2022-10-26T08:36:00;16.70;99.90
42187;DHT22;27858;51.414;0.018;2022-10-26T08:38:28;16.70;99.90
42187;DHT22;27858;51.414;0.018;2022-10-26T08:40:56;16.80;99.90
42187;DHT22;27858;51.414;0.018;2022-10-26T08:44:09;16.80;99.90
42187;DHT22;27858;51.414;0.018;2022-10-26T08:46:19;16.80;99.90
42187;DHT22;27858;51.414;0.018;2022-10-26T08:49:02;17.10;99.90
42187;DHT22;27858;51.414;0.018;2022-10-26T08:51:32;17.00;99.90
